Time;durP1;ratioP1;P1;durP2;ratioP2;P2;SDS_P1;SDS_P2;PMS_P1;PMS_P2;Temp;Humidity;BMP_temperature;BMP_pressure;BME280_temperature;BME280_humidity;BME280_pressure;Samples;Min_cycle;Max_cycle;Signal;HPM_P1;HPM_P2
2021/11/21 00:01:59;;;;;;;14.77;11.30;;;;;;;8.74;81.00;98629.39;2268832;78;21011;-82
2021/11/21 00:05:00;;;;;;;16.03;12.67;;;;;;;8.75;80.98;98621.16;2269188;78;21010;-81
2021/11/21 00:08:00;;;;;;;16.73;12.27;;;;;;;8.75;80.98;98622.46;2269293;78;21366;-82
2021/11/21 00:11:01;;;;;;;15.43;12.17;;;;;;;8.76;80.89;98617.28;2269427;78;20963;-83
2021/11/21 00:14:02;;;;;;;15.30;12.00;;;;;;;8.78;80.95;98606.47;2269337;78;20999;-82
2021/11/21 00:17:07;;;;;;;16.03;12.37;;;;;;;8.74;80.64;98605.97;2269340;78;21335;-82
2021/11/21 00:20:05;;;;;;;19.40;13.73;;;;;;;8.73;80.69;98607.25;2268772;78;20999;-82
2021/11/21 00:23:06;;;;;;;18.07;13.30;;;;;;;8.70;80.63;98602.88;2268714;78;20966;-81
2021/11/21 00:26:06;;;;;;;18.57;12.13;;;;;;;8.69;80.72;98599.83;2268378;78;20983;-82
2021/11/21 00:29:07;;;;;;;18.40;12.37;;;;;;;8.69;80.70;98595.92;2269052;78;21343;-84
2021/11/21 00:32:07;;;;;;;16.33;13.00;;;;;;;8.65;80.67;98584.98;2271114;78;21006;-81
2021/11/21 00:35:08;;;;;;;16.33;13.13;;;;;;;8.68;80.75;98583.77;2273764;78;20907;-81
2021/11/21 00:38:09;;;;;;;18.37;12.63;;;;;;;8.67;80.69;98589.82;2273537;78;20974;-81
2021/11/21 00:41:09;;;;;;;16.23;12.97;;;;;;;8.65;80.53;98585.41;2273487;78;20924;-83
2021/11/21 00:44:10;;;;;;;16.10;13.30;;;;;;;8.63;80.36;98587.98;2272655;78;20987;-81
2021/11/21 00:47:10;;;;;;;15.97;13.30;;;;;;;8.61;80.69;98574.95;2273292;78;21331;-81
2021/11/21 00:50:12;;;;;;;17.17;13.43;;;;;;;8.57;80.52;98573.16;2272989;78;20990;-81
2021/11/21 00:53:13;;;;;;;16.83;13.77;;;;;;;8.55;80.68;98579.19;2273191;78;21447;-81
2021/11/21 00:56:14;;;;;;;17.67;14.47;;;;;;;8.51;80.73;98572.19;2272803;78;20970;-82
2021/11/21 00:59:19;;;;;;;20.30;14.80;;;;;;;8.48;80.67;98576.92;2273251;78;20990;-80
2021/11/21 01:02:18;;;;;;;21.87;15.40;;;;;;;8.48;80.83;98580.82;2272659;77;21031;-81
2021/11/21 01:05:18;;;;;;;15.90;13.60;;;;;;;8.50;80.89;98569.14;2273437;78;21037;-81
2021/11/21 01:08:19;;;;;;;22.20;15.00;;;;;;;8.52;80.88;98572.21;2273349;78;21299;-82
2021/11/21 01:11:19;;;;;;;26.23;16.53;;;;;;;8.53;80.95;98569.19;2273384;78;20970;-82
2021/11/21 01:14:20;;;;;;;21.07;16.47;;;;;;;8.52;80.98;98566.14;2273704;78;20923;-81
2021/11/21 01:17:20;;;;;;;22.43;17.50;;;;;;;8.51;81.06;98563.09;2273506;78;20963;-82
2021/11/21 01:20:21;;;;;;;29.00;19.57;;;;;;;8.49;81.15;98548.75;2272955;78;21271;-82
2021/11/21 01:23:21;;;;;;;24.27;18.87;;;;;;;8.50;81.14;98548.33;2272875;78;20951;-82
2021/11/21 01:26:22;;;;;;;29.03;19.20;;;;;;;8.51;81.10;98544.45;2272839;78;21022;-82
2021/11/21 01:29:22;;;;;;;30.20;20.93;;;;;;;8.52;81.19;98537.09;2273180;78;21021;-81
2021/11/21 01:32:25;;;;;;;28.87;20.57;;;;;;;8.53;81.22;98543.17;2270693;78;21394;-81
2021/11/21 01:35:25;;;;;;;29.93;20.10;;;;;;;8.53;81.10;98539.27;2268763;78;20971;-83
2021/11/21 01:38:26;;;;;;;26.03;20.23;;;;;;;8.49;81.04;98535.75;2268592;78;21019;-82
2021/11/21 01:41:27;;;;;;;31.30;21.17;;;;;;;8.50;81.03;98528.82;2268992;78;20916;-81
2021/11/21 01:44:27;;;;;;;24.80;18.77;;;;;;;8.48;80.88;98533.12;2269155;78;21386;-81
2021/11/21 01:47:28;;;;;;;30.27;20.23;;;;;;;8.48;80.88;98526.20;2268844;78;21000;-82
2021/11/21 01:50:28;;;;;;;27.63;19.93;;;;;;;8.48;80.86;98514.48;2269315;78;20940;-83
2021/11/21 01:53:29;;;;;;;26.87;19.33;;;;;;;8.49;80.83;98514.06;2269413;78;20946;-82
2021/11/21 01:56:29;;;;;;;28.17;20.10;;;;;;;8.45;80.73;98502.73;2269294;78;21354;-82
2021/11/21 01:59:30;;;;;;;32.63;19.97;;;;;;;8.49;80.72;98499.33;2269016;78;20899;-81
2021/11/21 02:02:31;;;;;;;28.97;20.33;;;;;;;8.50;80.68;98493.70;2269065;78;20984;-83
2021/11/21 02:05:32;;;;;;;28.70;19.87;;;;;;;8.50;80.36;98488.50;2269024;78;20998;-82
2021/11/21 02:08:32;;;;;;;28.47;20.07;;;;;;;8.48;80.41;98478.07;2269799;78;20950;-82
2021/11/21 02:11:33;;;;;;;26.93;20.73;;;;;;;8.47;80.51;98469.82;2269821;78;20924;-83
2021/11/21 02:14:33;;;;;;;28.80;21.03;;;;;;;8.46;80.42;98469.37;2269402;78;20975;-82
2021/11/21 02:17:34;;;;;;;29.07;20.43;;;;;;;8.44;80.55;98465.88;2268958;78;20994;-80
2021/11/21 02:20:34;;;;;;;30.93;21.93;;;;;;;8.48;80.66;98458.98;2268870;78;21347;-82
2021/11/21 02:23:35;;;;;;;29.97;21.77;;;;;;;8.48;80.65;98457.69;2269286;78;20951;-81
2021/11/21 02:26:35;;;;;;;31.03;22.20;;;;;;;8.49;80.71;98452.51;2268750;78;21006;-81
2021/11/21 02:29:36;;;;;;;31.37;22.93;;;;;;;8.49;80.73;98446.43;2268241;78;20999;-81
2021/11/21 02:32:36;;;;;;;30.73;22.67;;;;;;;8.52;80.78;98443.88;2268478;78;21038;-81
2021/11/21 02:35:37;;;;;;;33.43;23.40;;;;;;;8.51;80.64;98435.62;2268844;78;20982;-81
2021/11/21 02:38:38;;;;;;;31.60;22.53;;;;;;;8.52;80.60;98436.94;2269329;78;21007;-82
2021/11/21 02:41:38;;;;;;;33.83;23.67;;;;;;;8.52;80.70;98432.17;2269074;78;20963;-80
2021/11/21 02:44:39;;;;;;;34.20;24.63;;;;;;;8.54;80.60;98427.86;2268947;78;20939;-82
2021/11/21 02:47:39;;;;;;;34.03;25.57;;;;;;;8.53;80.64;98432.19;2268952;78;21030;-81
2021/11/21 02:50:40;;;;;;;35.80;26.13;;;;;;;8.55;80.77;98429.18;2268828;78;20940;-81
2021/11/21 02:53:40;;;;;;;40.27;25.93;;;;;;;8.56;80.83;98420.95;2268826;78;21389;-82
2021/11/21 02:56:41;;;;;;;36.23;27.30;;;;;;;8.57;80.89;98418.80;2269275;78;20935;-82
2021/11/21 02:59:41;;;;;;;37.70;26.60;;;;;;;8.55;80.88;98410.97;2268673;78;20952;-80
2021/11/21 03:02:42;;;;;;;39.47;28.23;;;;;;;8.53;80.99;98411.80;2268658;78;20987;-81
2021/11/21 03:05:42;;;;;;;43.70;29.23;;;;;;;8.52;81.08;98408.75;2269213;78;21377;-82
2021/11/21 03:08:43;;;;;;;41.10;28.37;;;;;;;8.51;81.19;98403.11;2269187;78;20983;-82
2021/11/21 03:11:43;;;;;;;43.47;29.57;;;;;;;8.50;81.25;98404.83;2269471;78;20963;-82
2021/11/21 03:14:44;;;;;;;48.13;31.47;;;;;;;8.52;81.37;98402.25;2269441;78;20936;-81
2021/11/21 03:17:44;;;;;;;38.80;28.20;;;;;;;8.52;81.35;98399.66;2269215;78;21006;-81
2021/11/21 03:20:45;;;;;;;41.93;28.77;;;;;;;8.49;81.25;98398.31;2268967;78;20945;-82
2021/11/21 03:23:45;;;;;;;38.77;27.97;;;;;;;8.47;81.34;98396.12;2269093;78;20998;-81
2021/11/21 03:26:46;;;;;;;40.10;27.67;;;;;;;8.44;81.36;98393.05;2268786;78;21022;-83
2021/11/21 03:29:47;;;;;;;39.10;28.30;;;;;;;8.45;81.39;98391.33;2268606;78;20966;-81
2021/11/21 03:32:47;;;;;;;39.50;27.93;;;;;;;8.43;81.21;98394.33;2270787;78;21038;-82
2021/11/21 03:35:48;;;;;;;39.33;26.47;;;;;;;8.39;81.27;98387.34;2273735;78;21336;-82
2021/11/21 03:38:48;;;;;;;36.63;25.20;;;;;;;8.40;81.29;98388.66;2274051;78;21023;-84
2021/11/21 03:41:50;;;;;;;34.60;23.23;;;;;;;8.43;81.28;98390.00;2273704;78;21350;-82
2021/11/21 03:44:51;;;;;;;34.30;24.57;;;;;;;8.45;81.30;98390.02;2273317;78;20928;-82
2021/11/21 03:47:51;;;;;;;30.57;24.23;;;;;;;8.46;81.18;98379.64;2273387;78;21011;-83
2021/11/21 03:50:52;;;;;;;32.87;22.97;;;;;;;8.48;81.08;98377.93;2273575;78;20967;-83
2021/11/21 03:53:53;;;;;;;34.00;23.53;;;;;;;8.49;80.94;98373.17;2273077;78;20963;-81
2021/11/21 03:56:53;;;;;;;35.97;23.30;;;;;;;8.49;81.04;98370.57;2274093;78;20994;-81
2021/11/21 03:59:54;;;;;;;32.20;22.03;;;;;;;8.49;80.86;98371.88;2273440;78;20955;-81
2021/11/21 04:02:56;;;;;;;29.60;21.97;;;;;;;8.49;80.71;98367.09;2273836;78;21049;-82
2021/11/21 04:05:56;;;;;;;33.70;21.13;;;;;;;8.49;80.77;98363.20;2273169;78;21055;-83
2021/11/21 04:08:57;;;;;;;28.67;20.93;;;;;;;8.49;80.55;98365.80;2273778;78;20967;-81
2021/11/21 04:11:57;;;;;;;27.17;20.30;;;;;;;8.46;80.55;98368.36;2273825;78;20967;-81
2021/11/21 04:14:57;;;;;;;25.97;19.57;;;;;;;8.45;80.49;98362.28;2274128;78;20967;-81
2021/11/21 04:17:58;;;;;;;24.50;17.50;;;;;;;8.45;80.48;98358.38;2273770;78;20927;-82
2021/11/21 04:20:59;;;;;;;27.27;19.83;;;;;;;8.46;80.43;98359.25;2273651;78;21370;-83
2021/11/21 04:24:00;;;;;;;25.70;19.03;;;;;;;8.46;80.30;98353.63;2274237;78;20948;-82
2021/11/21 04:27:00;;;;;;;22.70;18.07;;;;;;;8.43;80.45;98343.19;2274244;78;20960;-84
2021/11/21 04:30:01;;;;;;;23.33;17.03;;;;;;;8.47;80.19;98341.50;2273795;78;20931;-83
2021/11/21 04:33:02;;;;;;;18.83;16.20;;;;;;;8.46;80.02;98328.05;2271269;78;20979;-83
2021/11/21 04:36:02;;;;;;;21.70;17.10;;;;;;;8.43;79.89;98324.11;2269002;78;20970;-81
2021/11/21 04:39:04;;;;;;;19.73;15.93;;;;;;;8.39;79.82;98324.50;2269435;78;20955;-82
2021/11/21 04:42:04;;;;;;;21.07;15.63;;;;;;;8.38;79.80;98324.05;2268995;78;21327;-81
2021/11/21 04:45:05;;;;;;;18.77;13.67;;;;;;;8.38;79.87;98325.35;2268993;78;20948;-82
2021/11/21 04:48:06;;;;;;;18.33;15.53;;;;;;;8.39;79.82;98321.89;2269212;78;21372;-83
2021/11/21 04:51:06;;;;;;;18.27;13.63;;;;;;;8.38;79.46;98313.65;2269104;78;20979;-84
2021/11/21 04:54:12;;;;;;;20.47;15.40;;;;;;;8.36;79.46;98314.48;2269707;78;20939;-82
2021/11/21 04:57:09;;;;;;;17.67;14.93;;;;;;;8.30;79.16;98316.13;2268977;78;20979;-83
2021/11/21 05:00:10;;;;;;;17.73;14.50;;;;;;;8.29;79.25;98310.48;2269690;78;20967;-83
2021/11/21 05:03:10;;;;;;;18.53;14.03;;;;;;;8.28;79.21;98314.36;2269039;78;21018;-83
2021/11/21 05:06:11;;;;;;;17.60;13.50;;;;;;;8.27;78.71;98315.21;2269210;78;21022;-84
2021/11/21 05:09:12;;;;;;;19.03;15.27;;;;;;;8.23;78.80;98316.03;2269275;78;20948;-83
2021/11/21 05:12:12;;;;;;;22.10;15.67;;;;;;;8.17;78.87;98312.92;2269222;78;21014;-83
2021/11/21 05:15:13;;;;;;;18.60;14.93;;;;;;;8.17;78.92;98317.25;2269866;78;20986;-82
2021/11/21 05:18:14;;;;;;;20.23;14.93;;;;;;;8.14;78.93;98306.81;2269272;78;21050;-80
2021/11/21 05:21:15;;;;;;;21.87;16.47;;;;;;;8.12;78.81;98308.52;2269520;78;21096;-82
2021/11/21 05:24:19;;;;;;;25.03;17.57;;;;;;;8.09;78.66;98306.75;2269046;78;20943;-81
2021/11/21 05:27:17;;;;;;;21.37;15.80;;;;;;;8.08;78.65;98297.64;2268385;78;20991;-82
2021/11/21 05:30:18;;;;;;;22.47;16.77;;;;;;;8.07;78.50;98287.66;2269059;78;20967;-83
2021/11/21 05:33:19;;;;;;;21.33;16.30;;;;;;;8.06;78.84;98290.25;2269006;78;21018;-84
2021/11/21 05:36:19;;;;;;;22.37;17.43;;;;;;;8.05;78.81;98286.77;2269294;78;21335;-83
2021/11/21 05:39:20;;;;;;;23.07;17.57;;;;;;;8.01;78.59;98284.11;2269214;78;20951;-81
2021/11/21 05:42:21;;;;;;;26.20;18.13;;;;;;;7.96;78.51;98281.03;2268740;78;20985;-81
2021/11/21 05:45:21;;;;;;;22.83;16.90;;;;;;;7.92;78.52;98280.97;2269036;78;20978;-82
2021/11/21 05:48:22;;;;;;;26.70;18.87;;;;;;;7.88;78.57;98280.48;2269298;78;21355;-80
2021/11/21 05:51:22;;;;;;;29.13;19.23;;;;;;;7.85;78.75;98277.84;2269433;78;20935;-82
2021/11/21 05:54:23;;;;;;;31.40;18.93;;;;;;;7.81;78.82;98273.45;2269073;78;20947;-82
2021/11/21 05:57:24;;;;;;;34.73;21.83;;;;;;;7.77;78.83;98274.23;2268993;78;20963;-81
2021/11/21 06:00:24;;;;;;;28.17;20.67;;;;;;;7.73;79.08;98277.64;2269044;78;20951;-81
2021/11/21 06:03:25;;;;;;;36.40;27.30;;;;;;;7.73;79.03;98272.45;2268669;78;21010;-81
2021/11/21 06:06:25;;;;;;;28.80;21.37;;;;;;;7.68;79.09;98281.05;2268779;78;21017;-80
2021/11/21 06:09:26;;;;;;;27.87;21.53;;;;;;;7.62;78.99;98274.47;2269322;78;20940;-80
2021/11/21 06:12:26;;;;;;;33.13;22.07;;;;;;;7.58;79.11;98276.57;2268845;78;20998;-79
2021/11/21 06:15:27;;;;;;;30.97;22.83;;;;;;;7.57;79.27;98280.45;2268714;78;21006;-81
2021/11/21 06:18:27;;;;;;;41.93;26.00;;;;;;;7.57;79.35;98281.74;2268635;78;21347;-79
2021/11/21 06:21:28;;;;;;;37.07;24.37;;;;;;;7.58;79.37;98284.36;2268218;78;20987;-80
2021/11/21 06:24:29;;;;;;;38.80;26.57;;;;;;;7.58;79.28;98281.77;2268366;78;20956;-81
2021/11/21 06:27:30;;;;;;;33.13;22.07;;;;;;;7.57;79.42;98278.72;2268731;78;20979;-80
2021/11/21 06:30:30;;;;;;;35.53;23.43;;;;;;;7.58;79.32;98282.19;2268382;78;21014;-81
2021/11/21 06:33:31;;;;;;;29.03;21.73;;;;;;;7.56;79.41;98276.97;2270230;78;21014;-79
2021/11/21 06:36:32;;;;;;;23.67;19.53;;;;;;;7.58;79.46;98281.77;2273116;78;20967;-80
2021/11/21 06:39:33;;;;;;;26.23;19.73;;;;;;;7.61;79.32;98273.14;2273688;78;20943;-79
2021/11/21 06:42:33;;;;;;;27.83;21.37;;;;;;;7.60;79.21;98281.36;2273296;78;20958;-80
2021/11/21 06:45:34;;;;;;;26.80;20.03;;;;;;;7.57;79.35;98272.23;2273521;78;20974;-79
2021/11/21 06:48:36;;;;;;;53.03;34.67;;;;;;;7.58;79.46;98268.78;2273752;78;20967;-80
2021/11/21 06:51:41;;;;;;;29.17;20.93;;;;;;;7.63;79.46;98266.25;2273287;78;20904;-80
2021/11/21 06:54:38;;;;;;;26.03;19.60;;;;;;;7.67;79.34;98262.42;2273266;78;21287;-78
2021/11/21 06:57:39;;;;;;;25.93;19.03;;;;;;;7.62;78.92;98253.69;2273270;78;20967;-80
2021/11/21 07:00:39;;;;;;;22.53;16.63;;;;;;;7.67;79.26;98265.02;2272969;78;20966;-80
2021/11/21 07:03:40;;;;;;;25.70;18.90;;;;;;;7.73;79.38;98261.63;2272090;78;21046;-81
2021/11/21 07:06:41;;;;;;;26.33;20.50;;;;;;;7.76;78.88;98254.30;2272924;78;20963;-80
2021/11/21 07:09:43;;;;;;;24.67;19.63;;;;;;;7.77;78.95;98254.75;2273476;78;20947;-79
2021/11/21 07:12:44;;;;;;;29.33;21.93;;;;;;;7.79;79.04;98251.75;2273565;78;21339;-79
2021/11/21 07:15:44;;;;;;;30.43;21.07;;;;;;;7.84;78.90;98250.11;2273518;78;21031;-80
2021/11/21 07:18:45;;;;;;;30.30;21.03;;;;;;;7.89;78.79;98253.64;2273496;78;21018;-79
2021/11/21 07:21:45;;;;;;;29.40;21.33;;;;;;;7.91;78.75;98245.44;2273704;78;20963;-79
2021/11/21 07:24:46;;;;;;;23.23;19.53;;;;;;;7.92;78.41;98243.28;2274201;78;21038;-79
2021/11/21 07:27:46;;;;;;;27.23;20.40;;;;;;;7.95;78.43;98240.73;2273666;78;21374;-80
2021/11/21 07:30:47;;;;;;;29.27;21.60;;;;;;;7.97;78.29;98239.89;2272828;78;20983;-80
2021/11/21 07:33:48;;;;;;;29.17;21.37;;;;;;;7.99;78.26;98244.68;2272232;78;21023;-81
2021/11/21 07:36:48;;;;;;;28.47;20.13;;;;;;;8.06;78.09;98243.45;2272876;78;20960;-80
2021/11/21 07:39:49;;;;;;;27.23;18.60;;;;;;;8.12;78.22;98247.00;2273155;78;21378;-80
2021/11/21 07:42:49;;;;;;;29.73;19.77;;;;;;;8.18;77.57;98247.08;2273060;78;20959;-82
2021/11/21 07:45:52;;;;;;;36.80;21.63;;;;;;;8.18;77.35;98248.37;2272395;78;21010;-80
2021/11/21 07:48:52;;;;;;;28.13;18.27;;;;;;;8.19;77.30;98254.02;2273197;78;21359;-80
2021/11/21 07:51:53;;;;;;;25.07;18.97;;;;;;;8.22;77.25;98252.76;2273004;78;21021;-80
2021/11/21 07:54:54;;;;;;;23.63;17.77;;;;;;;8.23;76.87;98249.30;2272844;78;20964;-80
2021/11/21 07:57:54;;;;;;;26.23;19.43;;;;;;;8.25;76.97;98244.12;2272963;78;21006;-79
2021/11/21 08:00:55;;;;;;;24.83;16.87;;;;;;;8.26;77.06;98238.94;2272398;78;20979;-80
2021/11/21 08:03:56;;;;;;;24.97;19.30;;;;;;;8.28;76.11;98234.63;2272638;78;20998;-80
2021/11/21 08:06:56;;;;;;;22.03;16.67;;;;;;;8.26;76.43;98235.03;2272227;78;20990;-80
2021/11/21 08:09:57;;;;;;;19.17;15.83;;;;;;;8.22;76.39;98238.45;2272538;78;20970;-80
2021/11/21 08:12:57;;;;;;;20.17;17.13;;;;;;;8.20;76.03;98235.39;2272616;78;21426;-79
2021/11/21 08:15:57;;;;;;;21.27;17.90;;;;;;;8.21;75.90;98240.61;2272658;78;20931;-80
2021/11/21 08:18:58;;;;;;;18.47;16.40;;;;;;;8.28;76.34;98241.13;2272861;78;21009;-79
2021/11/21 08:21:59;;;;;;;21.40;17.47;;;;;;;8.35;75.44;98240.80;2272519;78;21003;-80
2021/11/21 08:24:59;;;;;;;18.13;16.17;;;;;;;8.37;75.67;98250.79;2272974;78;20951;-79
2021/11/21 08:27:59;;;;;;;23.97;18.27;;;;;;;8.33;75.37;98251.61;2273615;78;20979;-80
2021/11/21 08:31:00;;;;;;;20.20;15.70;;;;;;;8.38;75.72;98252.96;2272956;78;21006;-79
2021/11/21 08:34:01;;;;;;;21.73;17.80;;;;;;;8.37;75.12;98245.59;2271764;78;21031;-79
2021/11/21 08:37:01;;;;;;;17.77;15.87;;;;;;;8.38;75.44;98240.83;2269398;78;20983;-79
2021/11/21 08:40:02;;;;;;;20.60;17.93;;;;;;;8.36;75.18;98239.07;2269539;78;21525;-79
2021/11/21 08:43:03;;;;;;;23.77;18.37;;;;;;;8.41;75.75;98242.59;2269499;78;20932;-80
2021/11/21 08:46:03;;;;;;;21.40;17.10;;;;;;;8.47;75.48;98238.33;2269645;78;20979;-80
2021/11/21 08:49:04;;;;;;;21.53;16.60;;;;;;;8.47;74.48;98240.06;2269451;78;20939;-79
2021/11/21 08:52:04;;;;;;;20.67;17.50;;;;;;;8.44;74.51;98227.89;2269157;78;21323;-80
2021/11/21 08:55:05;;;;;;;20.77;17.13;;;;;;;8.43;74.98;98219.64;2269213;78;20959;-80
2021/11/21 08:58:06;;;;;;;23.50;16.63;;;;;;;8.46;75.15;98224.01;2268950;78;21002;-81
2021/11/21 09:01:06;;;;;;;20.83;17.17;;;;;;;8.43;74.83;98223.98;2268647;78;21015;-79
2021/11/21 09:04:07;;;;;;;18.00;16.10;;;;;;;8.37;75.22;98214.81;2269263;78;21002;-80
2021/11/21 09:07:07;;;;;;;17.70;15.53;;;;;;;8.41;74.85;98216.59;2269256;78;20999;-80
2021/11/21 09:10:08;;;;;;;24.13;17.03;;;;;;;8.41;74.60;98212.69;2269260;78;20963;-79
2021/11/21 09:13:08;;;;;;;20.53;16.70;;;;;;;8.47;74.80;98201.91;2269656;78;20999;-79
2021/11/21 09:16:09;;;;;;;21.90;17.57;;;;;;;8.58;74.45;98200.28;2268851;78;20983;-81
2021/11/21 09:19:09;;;;;;;21.13;17.23;;;;;;;8.67;74.70;98202.14;2269030;78;21339;-80
2021/11/21 09:22:10;;;;;;;21.33;16.00;;;;;;;8.79;73.79;98200.94;2268295;78;20964;-79
2021/11/21 09:25:11;;;;;;;19.60;16.67;;;;;;;8.83;72.83;98200.53;2268956;78;20999;-80
2021/11/21 09:28:11;;;;;;;20.60;16.37;;;;;;;8.79;73.03;98194.44;2269180;78;20924;-80
2021/11/21 09:31:12;;;;;;;22.50;18.83;;;;;;;8.90;73.11;98187.59;2269209;78;21324;-80
2021/11/21 09:34:14;;;;;;;20.07;16.20;;;;;;;9.01;72.66;98190.70;2268889;78;21038;-79
2021/11/21 09:37:15;;;;;;;19.90;16.30;;;;;;;9.03;71.99;98191.59;2269176;78;20983;-79
2021/11/21 09:40:15;;;;;;;21.07;16.13;;;;;;;8.95;71.63;98181.11;2269121;78;20956;-79
2021/11/21 09:43:16;;;;;;;18.87;16.00;;;;;;;9.03;71.72;98178.14;2269009;78;20959;-80
2021/11/21 09:46:17;;;;;;;19.60;14.77;;;;;;;9.11;72.25;98174.28;2268776;78;21006;-81
2021/11/21 09:49:18;;;;;;;18.87;15.33;;;;;;;9.16;71.50;98167.38;2269185;78;20940;-80
2021/11/21 09:52:19;;;;;;;16.77;13.90;;;;;;;9.28;71.83;98167.89;2270019;78;20967;-79
2021/11/21 09:55:19;;;;;;;22.27;16.97;;;;;;;9.24;71.15;98161.78;2269724;78;20955;-81
2021/11/21 09:58:20;;;;;;;24.03;17.80;;;;;;;9.19;72.05;98161.76;2269064;78;20970;-80
2021/11/21 10:01:21;;;;;;;17.83;15.17;;;;;;;9.11;72.08;98166.05;2269397;78;21335;-80
2021/11/21 10:04:21;;;;;;;16.77;14.97;;;;;;;9.09;71.90;98165.59;2269288;78;20995;-80
2021/11/21 10:07:22;;;;;;;16.97;14.97;;;;;;;9.04;71.80;98157.75;2268967;78;20975;-81
2021/11/21 10:10:22;;;;;;;18.37;15.77;;;;;;;9.01;72.11;98152.95;2268366;78;21376;-79
2021/11/21 10:13:23;;;;;;;18.67;14.53;;;;;;;9.00;72.48;98152.52;2268437;78;20935;-80
2021/11/21 10:16:28;;;;;;;17.07;14.40;;;;;;;9.00;72.09;98152.52;2268909;78;20975;-80
2021/11/21 10:19:26;;;;;;;36.27;27.03;;;;;;;8.94;72.39;98155.95;2267368;78;20994;-80
2021/11/21 10:22:26;;;;;;;20.10;18.00;;;;;;;8.97;72.91;98157.70;2268228;78;20931;-81
2021/11/21 10:25:27;;;;;;;25.23;18.30;;;;;;;8.98;72.60;98153.80;2268731;78;21311;-79
2021/11/21 10:28:28;;;;;;;18.97;16.63;;;;;;;8.98;72.35;98147.73;2268996;78;20944;-80
2021/11/21 10:31:28;;;;;;;22.23;16.37;;;;;;;9.00;71.88;98153.81;2268925;78;20947;-79
2021/11/21 10:34:29;;;;;;;22.17;17.47;;;;;;;9.03;72.08;98147.33;2270182;78;20994;-80
2021/11/21 10:37:29;;;;;;;24.13;18.73;;;;;;;9.08;71.87;98145.62;2273229;78;21014;-79
2021/11/21 10:40:30;;;;;;;21.40;16.23;;;;;;;9.13;72.26;98151.73;2273097;78;20959;-80
2021/11/21 10:43:31;;;;;;;18.00;15.87;;;;;;;9.20;71.88;98152.22;2273118;78;20990;-81
2021/11/21 10:46:31;;;;;;;24.67;18.80;;;;;;;9.19;71.56;98146.56;2272609;78;21037;-79
2021/11/21 10:49:32;;;;;;;24.50;20.07;;;;;;;9.18;71.95;98146.12;2273045;78;20979;-81
2021/11/21 10:52:33;;;;;;;23.27;18.10;;;;;;;9.23;71.56;98142.69;2272398;78;21011;-81
2021/11/21 10:55:33;;;;;;;22.90;18.53;;;;;;;9.26;70.93;98144.44;2273553;78;21254;-81
2021/11/21 10:58:34;;;;;;;21.20;18.27;;;;;;;9.14;70.57;98140.03;2273386;78;20979;-81
2021/11/21 11:01:34;;;;;;;23.17;19.10;;;;;;;9.07;70.92;98144.76;2273220;78;21011;-80
2021/11/21 11:04:35;;;;;;;23.97;20.03;;;;;;;9.12;71.83;98138.28;2273637;78;21061;-80
2021/11/21 11:07:37;;;;;;;24.63;18.83;;;;;;;9.09;71.18;98135.22;2273837;78;20984;-79
2021/11/21 11:10:38;;;;;;;27.73;20.77;;;;;;;9.09;71.24;98139.13;2271627;78;21482;-79
2021/11/21 11:13:38;;;;;;;28.13;21.03;;;;;;;9.09;71.77;98135.22;2272031;78;20935;-80
2021/11/21 11:16:39;;;;;;;28.47;21.40;;;;;;;9.07;71.28;98135.64;2272007;78;20951;-79
2021/11/21 11:19:39;;;;;;;29.53;21.37;;;;;;;9.03;71.30;98133.88;2272027;78;21378;-79
2021/11/21 11:22:40;;;;;;;29.57;23.00;;;;;;;9.02;71.45;98133.87;2271981;78;20986;-79
2021/11/21 11:25:43;;;;;;;29.17;22.67;;;;;;;9.02;71.66;98130.84;2272432;78;21366;-80
2021/11/21 11:28:43;;;;;;;26.20;22.20;;;;;;;9.02;71.63;98131.27;2272971;78;20947;-80
2021/11/21 11:31:44;;;;;;;34.00;24.17;;;;;;;9.05;71.64;98132.59;2273451;78;20951;-81
2021/11/21 11:34:44;;;;;;;33.60;24.37;;;;;;;9.04;71.57;98132.16;2270659;78;21046;-80
2021/11/21 11:37:45;;;;;;;30.03;23.10;;;;;;;9.05;71.60;98136.06;2268034;78;20963;-79
2021/11/21 11:40:49;;;;;;;31.77;24.20;;;;;;;9.03;70.91;98130.41;2268346;78;20978;-79
2021/11/21 11:43:48;;;;;;;28.93;23.13;;;;;;;8.98;71.32;98130.81;2268302;78;20994;-79
2021/11/21 11:46:48;;;;;;;28.17;23.13;;;;;;;8.94;71.27;98133.39;2268578;78;21375;-80
2021/11/21 11:49:49;;;;;;;29.83;23.33;;;;;;;8.93;71.40;98130.78;2237358;78;20923;-80
2021/11/21 11:52:49;;;;;;;28.53;25.40;;;;;;;8.92;71.35;98129.91;2267939;79;20943;-80
2021/11/21 11:55:52;;;;;;;33.07;24.40;;;;;;;8.89;71.25;98128.58;2267258;78;21446;-79
2021/11/21 11:58:53;;;;;;;25.30;21.57;;;;;;;8.93;70.93;98127.74;2267647;78;20994;-80
2021/11/21 12:01:54;;;;;;;29.33;22.10;;;;;;;8.99;71.05;98121.70;2267675;78;20971;-81
2021/11/21 12:04:57;;;;;;;26.77;21.77;;;;;;;9.05;70.21;98120.88;2267722;78;20984;-79
2021/11/21 12:07:57;;;;;;;26.50;20.87;;;;;;;9.17;70.14;98114.01;2268168;78;20955;-81
2021/11/21 12:10:58;;;;;;;26.53;21.23;;;;;;;9.23;70.33;98115.77;2268315;78;20955;-80
2021/11/21 12:13:59;;;;;;;25.53;20.27;;;;;;;9.29;69.96;98118.41;2268646;78;20948;-80
2021/11/21 12:16:59;;;;;;;28.70;19.80;;;;;;;9.20;70.09;98122.27;2268809;78;20912;-81
2021/11/21 12:20:01;;;;;;;30.63;22.67;;;;;;;9.12;70.32;98122.66;2268966;78;20947;-80
2021/11/21 12:23:02;;;;;;;32.50;24.10;;;;;;;9.08;70.57;98117.86;2269154;78;20947;-80
2021/11/21 12:26:02;;;;;;;27.73;21.63;;;;;;;8.98;70.26;98119.97;2269133;78;20995;-80
2021/11/21 12:29:03;;;;;;;35.80;24.20;;;;;;;8.88;70.37;98121.64;2269375;78;21003;-79
2021/11/21 12:32:03;;;;;;;36.30;25.73;;;;;;;8.82;70.72;98125.50;2269009;78;21358;-81
2021/11/21 12:35:04;;;;;;;33.63;24.37;;;;;;;8.77;71.31;98120.69;2268728;78;21062;-80
2021/11/21 12:38:04;;;;;;;34.37;24.43;;;;;;;8.72;71.22;98128.89;2268333;78;21021;-80
2021/11/21 12:41:05;;;;;;;39.23;25.70;;;;;;;8.65;71.21;98120.99;2267998;78;21339;-81
2021/11/21 12:44:06;;;;;;;34.33;24.03;;;;;;;8.62;71.48;98123.14;2268263;78;20955;-80
2021/11/21 12:47:07;;;;;;;33.80;23.97;;;;;;;8.56;71.07;98122.66;2268633;78;21426;-81
2021/11/21 12:50:08;;;;;;;30.33;22.77;;;;;;;8.51;71.66;98123.48;2268678;78;20956;-80
2021/11/21 12:53:08;;;;;;;31.47;22.17;;;;;;;8.49;71.72;98122.17;2268614;78;21346;-80
2021/11/21 12:56:11;;;;;;;32.70;24.10;;;;;;;8.48;71.68;98119.55;2268931;78;20908;-80
2021/11/21 12:59:11;;;;;;;33.67;25.40;;;;;;;8.48;71.54;98120.42;2268598;78;20995;-79
2021/11/21 13:02:11;;;;;;;45.13;30.57;;;;;;;8.45;71.72;98110.42;2269074;78;20924;-80
2021/11/21 13:05:12;;;;;;;45.97;31.37;;;;;;;8.44;71.99;98113.45;2267991;78;21144;-80
2021/11/21 13:08:13;;;;;;;54.20;35.20;;;;;;;8.41;72.05;98113.43;2268394;78;20955;-79
2021/11/21 13:11:14;;;;;;;39.80;26.23;;;;;;;8.39;72.10;98112.97;2268051;78;21706;-82
2021/11/21 13:14:15;;;;;;;27.47;22.50;;;;;;;8.34;72.09;98114.23;2268583;78;20962;-81
2021/11/21 13:17:15;;;;;;;35.07;25.47;;;;;;;8.27;72.31;98106.77;2268729;78;21002;-79
2021/11/21 13:20:16;;;;;;;33.17;24.67;;;;;;;8.24;72.46;98114.55;2268692;78;21319;-80
2021/11/21 13:23:16;;;;;;;30.00;23.30;;;;;;;8.26;72.57;98118.46;2268433;78;20963;-80
2021/11/21 13:26:17;;;;;;;30.40;23.23;;;;;;;8.27;72.45;98121.08;2268648;78;21029;-80
2021/11/21 13:29:18;;;;;;;28.77;23.77;;;;;;;8.26;72.58;98121.93;2268239;78;20967;-80
2021/11/21 13:32:18;;;;;;;28.73;23.40;;;;;;;8.29;72.91;98117.19;2268149;78;20943;-79
2021/11/21 13:35:21;;;;;;;26.60;21.37;;;;;;;8.27;72.90;98123.67;2236294;78;21415;-79
2021/11/21 13:38:21;;;;;;;31.10;22.47;;;;;;;8.26;73.03;98115.43;2268565;78;20948;-81
2021/11/21 13:41:22;;;;;;;27.97;22.13;;;;;;;8.27;73.17;98116.30;2268262;78;21419;-80
2021/11/21 13:44:23;;;;;;;29.20;22.73;;;;;;;8.26;73.40;98119.77;2267795;78;20943;-81
2021/11/21 13:47:30;;;;;;;30.63;22.97;;;;;;;8.25;73.46;98121.92;2268509;78;20998;-82
2021/11/21 13:50:29;;;;;;;34.63;24.43;;;;;;;8.23;73.38;98120.61;2267927;78;21397;-80
2021/11/21 13:53:30;;;;;;;34.43;24.83;;;;;;;8.21;73.66;98128.81;2268636;78;20955;-79
2021/11/21 13:56:31;;;;;;;38.27;26.90;;;;;;;8.20;73.59;98130.10;2267969;78;20960;-80
2021/11/21 13:59:31;;;;;;;46.53;30.33;;;;;;;8.18;73.45;98130.52;2268838;78;20950;-81